Archival Weather

Snohomish County (Paine Fld)

Everett, Washington (KPAE)

Report from: Thursday, November 2, 2023 2:53 PM PDT
Current time: Monday, June 17, 2024 1:35 AM PDT

Current weather – Weather history – Daily summaries
Weather forecast

Temperature14.4°C (57.9°F)
Dew point11.7°C (53.1°F)
Winds Calm
Peak wind 27 kts (13.9 m/s, 31.1 mph) South (180°) at 20:55
Visibility10 mi. (16.1 km)
Clouds Scattered clouds 200 ft. (61 m)
Ceiling: Broken clouds 800 ft. (244 m)
Altimeter29.92 in.Hg (1013 mB)
Relative humidity84 %
Density altitude127 ft. (39 m)
Sea-level pressure101.3 kPa (1013 mB, 29.92 in.Hg)
Remarks Corrected report
Automated weather observing station with precipitation discriminator
Flight conditions Instrument Meteorological Conditions
Raw dataKPAE 022153Z COR 00000KT 10SM SCT002 BKN008 14/12 A2992 RMK AO2 PK WND 18027/2055 SLP131 T01440117
An error has occurred. This application may no longer respond until reloaded. Reload 🗙